Time;durP1;ratioP1;P1;durP2;ratioP2;P2;SDS_P1;SDS_P2;PMS_P1;PMS_P2;Temp;Humidity;BMP_temperature;BMP_pressure;BME280_temperature;BME280_humidity;BME280_pressure;Samples;Min_cycle;Max_cycle;Signal;HPM_P1;HPM_P2
2022/04/05 00:02:09;;;;;;;6.00;3.92;;;;;;;;;;4947395;28;20031;-61
2022/04/05 00:04:35;;;;;;;5.93;4.28;;;;;;;;;;4949181;28;20441;-63
2022/04/05 00:07:00;;;;;;;4.47;3.53;;;;;;;;;;4949847;28;20042;-63
2022/04/05 00:09:26;;;;;;;4.57;3.13;;;;;;;;;;4945588;28;20389;-64
2022/04/05 00:11:51;;;;;;;4.32;3.10;;;;;;;;;;4944024;28;20062;-63
2022/04/05 00:14:16;;;;;;;5.28;4.07;;;;;;;;;;4944331;28;20054;-64
2022/04/05 00:16:42;;;;;;;4.35;3.50;;;;;;;;;;4945356;28;20055;-63
2022/04/05 00:19:07;;;;;;;4.25;3.50;;;;;;;;;;4947054;28;20027;-65
2022/04/05 00:21:32;;;;;;;4.55;3.67;;;;;;;;;;4949025;28;20055;-61
2022/04/05 00:23:58;;;;;;;4.07;3.53;;;;;;;;;;4946730;28;20085;-63
2022/04/05 00:26:23;;;;;;;4.88;3.55;;;;;;;;;;4948601;28;20132;-62
2022/04/05 00:28:49;;;;;;;5.32;3.60;;;;;;;;;;4943984;28;20365;-62
2022/04/05 00:31:14;;;;;;;6.82;3.70;;;;;;;;;;4942147;28;20560;-63
2022/04/05 00:33:40;;;;;;;3.88;3.03;;;;;;;;;;4948300;28;20125;-63
2022/04/05 00:36:05;;;;;;;4.63;3.28;;;;;;;;;;4949714;28;20067;-63
2022/04/05 00:38:31;;;;;;;4.75;3.53;;;;;;;;;;4946746;28;20066;-63
2022/04/05 00:40:56;;;;;;;3.25;2.88;;;;;;;;;;4942830;28;20031;-63
2022/04/05 00:43:22;;;;;;;3.70;2.72;;;;;;;;;;4947315;28;20039;-64
2022/04/05 00:45:47;;;;;;;4.05;3.30;;;;;;;;;;4948770;28;20035;-64
2022/04/05 00:48:21;;;;;;;3.67;2.88;;;;;;;;;;4948312;28;20166;-63
2022/04/05 00:50:47;;;;;;;4.07;3.10;;;;;;;;;;4948647;28;20031;-61
2022/04/05 00:53:13;;;;;;;4.00;3.00;;;;;;;;;;4948586;28;20482;-61
2022/04/05 00:55:39;;;;;;;3.53;2.80;;;;;;;;;;4947864;28;20067;-61
2022/04/05 00:58:07;;;;;;;3.20;2.90;;;;;;;;;;4943834;28;20081;-60
2022/04/05 01:00:33;;;;;;;5.07;3.28;;;;;;;;;;4945551;28;20066;-61
2022/04/05 01:02:59;;;;;;;6.85;3.50;;;;;;;;;;4946865;28;20421;-59
2022/04/05 01:05:26;;;;;;;5.40;3.40;;;;;;;;;;4950154;28;20497;-62
2022/04/05 01:07:54;;;;;;;5.80;3.80;;;;;;;;;;4949224;28;20031;-62
2022/04/05 01:10:21;;;;;;;11.82;3.97;;;;;;;;;;4949016;28;20541;-60
2022/04/05 01:12:49;;;;;;;4.03;3.38;;;;;;;;;;4944935;28;20039;-59
2022/04/05 01:15:14;;;;;;;5.72;3.80;;;;;;;;;;4945892;28;21153;-60
2022/04/05 01:17:40;;;;;;;5.22;3.38;;;;;;;;;;4947381;28;20031;-61
2022/04/05 01:20:06;;;;;;;4.40;3.55;;;;;;;;;;4947836;28;20440;-60
2022/04/05 01:22:32;;;;;;;7.13;3.45;;;;;;;;;;4945471;28;20043;-59
2022/04/05 01:24:57;;;;;;;5.07;3.50;;;;;;;;;;4946526;28;20066;-60
2022/04/05 01:27:27;;;;;;;5.18;3.47;;;;;;;;;;4948877;28;20070;-61
2022/04/05 01:29:53;;;;;;;5.60;3.42;;;;;;;;;;4947246;28;20126;-60
2022/04/05 01:32:18;;;;;;;4.53;3.17;;;;;;;;;;4947507;28;20042;-61
2022/04/05 01:34:44;;;;;;;3.65;3.35;;;;;;;;;;4943385;28;20469;-62
2022/04/05 01:37:10;;;;;;;4.55;3.50;;;;;;;;;;4946777;28;20034;-59
2022/04/05 01:39:37;;;;;;;5.32;3.10;;;;;;;;;;4946292;28;20064;-62
2022/04/05 01:42:06;;;;;;;3.88;3.03;;;;;;;;;;4945217;28;20398;-60
2022/04/05 01:44:33;;;;;;;5.05;3.10;;;;;;;;;;4949755;28;20405;-58
2022/04/05 01:47:09;;;;;;;4.22;3.10;;;;;;;;;;4945709;28;20359;-59
2022/04/05 01:49:39;;;;;;;3.83;3.42;;;;;;;;;;4943687;28;20050;-59
2022/04/05 01:52:06;;;;;;;3.63;3.17;;;;;;;;;;4948368;28;20039;-60
2022/04/05 01:54:32;;;;;;;4.40;3.08;;;;;;;;;;4947884;28;20428;-60
2022/04/05 01:56:57;;;;;;;4.85;2.97;;;;;;;;;;4946266;28;20118;-59
2022/04/05 01:59:30;;;;;;;3.30;2.85;;;;;;;;;;4947067;28;20043;-60
2022/04/05 02:01:56;;;;;;;3.97;3.00;;;;;;;;;;4948993;28;20032;-58
2022/04/05 02:04:22;;;;;;;3.90;2.85;;;;;;;;;;4945208;28;20126;-60
2022/04/05 02:06:48;;;;;;;5.40;2.90;;;;;;;;;;4945889;28;20027;-59
2022/04/05 02:09:14;;;;;;;3.05;2.75;;;;;;;;;;4946379;28;20047;-59
2022/04/05 02:11:41;;;;;;;3.08;2.70;;;;;;;;;;4946313;28;20046;-59
2022/04/05 02:14:07;;;;;;;3.75;2.50;;;;;;;;;;4947766;28;20039;-60
2022/04/05 02:16:32;;;;;;;3.75;2.65;;;;;;;;;;4945008;28;20042;-60
2022/04/05 02:18:58;;;;;;;3.40;2.63;;;;;;;;;;4946640;28;20031;-58
2022/04/05 02:21:24;;;;;;;3.40;2.75;;;;;;;;;;4945510;28;20032;-60
2022/04/05 02:23:49;;;;;;;4.82;2.60;;;;;;;;;;4944998;28;20035;-60
2022/04/05 02:26:15;;;;;;;5.10;2.90;;;;;;;;;;4946170;28;20059;-60
2022/04/05 02:28:41;;;;;;;3.40;2.60;;;;;;;;;;4943834;28;20035;-60
2022/04/05 02:31:07;;;;;;;3.35;2.53;;;;;;;;;;4947374;28;20023;-60
2022/04/05 02:33:32;;;;;;;3.17;2.72;;;;;;;;;;4943674;28;20077;-60
2022/04/05 02:35:58;;;;;;;3.35;2.80;;;;;;;;;;4946515;28;20035;-63
2022/04/05 02:38:23;;;;;;;4.60;2.70;;;;;;;;;;4949543;28;20061;-60
2022/04/05 02:40:48;;;;;;;2.30;2.13;;;;;;;;;;4948328;28;20064;-60
2022/04/05 02:43:14;;;;;;;3.53;2.55;;;;;;;;;;4948039;28;20039;-61
2022/04/05 02:45:40;;;;;;;3.20;2.70;;;;;;;;;;4950781;28;20038;-60
2022/04/05 02:48:05;;;;;;;3.08;2.75;;;;;;;;;;4951862;28;20042;-60
2022/04/05 02:50:31;;;;;;;3.63;2.20;;;;;;;;;;4949623;28;20506;-59
2022/04/05 02:52:56;;;;;;;2.60;2.05;;;;;;;;;;4947889;28;20039;-59
2022/04/05 02:55:22;;;;;;;3.47;2.13;;;;;;;;;;4949508;28;20121;-60
2022/04/05 02:57:49;;;;;;;2.75;2.20;;;;;;;;;;4955875;28;20042;-60
2022/04/05 03:00:16;;;;;;;2.92;2.28;;;;;;;;;;4944588;28;20051;-60
2022/04/05 03:02:42;;;;;;;2.40;2.20;;;;;;;;;;4949495;28;20039;-65
2022/04/05 03:05:08;;;;;;;3.10;2.13;;;;;;;;;;4949675;28;20106;-62
2022/04/05 03:07:34;;;;;;;2.65;2.08;;;;;;;;;;4949979;28;20031;-62
2022/04/05 03:10:04;;;;;;;2.80;2.10;;;;;;;;;;4949266;28;20375;-60
2022/04/05 03:12:29;;;;;;;3.05;2.22;;;;;;;;;;4947195;28;20078;-60
2022/04/05 03:14:55;;;;;;;2.83;2.10;;;;;;;;;;4950738;28;20039;-59
2022/04/05 03:17:20;;;;;;;2.63;1.80;;;;;;;;;;4948601;28;20154;-60
2022/04/05 03:19:46;;;;;;;2.08;1.88;;;;;;;;;;4947734;28;20031;-60
2022/04/05 03:22:11;;;;;;;2.10;1.95;;;;;;;;;;4949310;28;20027;-60
2022/04/05 03:24:37;;;;;;;1.70;1.60;;;;;;;;;;4950568;28;20035;-71
2022/04/05 03:27:03;;;;;;;2.95;1.85;;;;;;;;;;4949073;28;20034;-69
2022/04/05 03:29:29;;;;;;;2.88;1.80;;;;;;;;;;4948558;28;20110;-59
2022/04/05 03:31:54;;;;;;;2.92;1.60;;;;;;;;;;4950058;28;20074;-61
2022/04/05 03:34:19;;;;;;;1.98;1.80;;;;;;;;;;4949516;28;20085;-61
2022/04/05 03:36:45;;;;;;;1.98;1.70;;;;;;;;;;4947729;28;20043;-61
2022/04/05 03:39:13;;;;;;;1.95;1.75;;;;;;;;;;4944693;28;20066;-59
2022/04/05 03:41:39;;;;;;;2.30;1.73;;;;;;;;;;4951696;28;20039;-60
2022/04/05 03:44:05;;;;;;;1.80;1.67;;;;;;;;;;4948792;28;20035;-61
2022/04/05 03:46:31;;;;;;;1.98;1.80;;;;;;;;;;4948009;28;20042;-59
2022/04/05 03:48:57;;;;;;;1.90;1.80;;;;;;;;;;4947125;28;20489;-59
2022/04/05 03:51:22;;;;;;;2.08;1.88;;;;;;;;;;4954585;28;20114;-62
2022/04/05 03:53:47;;;;;;;1.90;1.70;;;;;;;;;;4943775;28;20122;-60
2022/04/05 03:56:13;;;;;;;2.90;2.00;;;;;;;;;;4947792;28;20047;-60
2022/04/05 03:58:39;;;;;;;2.25;1.70;;;;;;;;;;4946433;28;20039;-58
2022/04/05 04:01:04;;;;;;;2.10;1.90;;;;;;;;;;4949575;28;20098;-61
2022/04/05 04:03:30;;;;;;;2.15;1.80;;;;;;;;;;4948739;28;20549;-60
2022/04/05 04:05:55;;;;;;;2.25;2.03;;;;;;;;;;4945876;28;20030;-59
2022/04/05 04:08:21;;;;;;;2.55;2.03;;;;;;;;;;4948087;28;20039;-60
2022/04/05 04:10:49;;;;;;;3.65;1.77;;;;;;;;;;4949424;28;20106;-60
2022/04/05 04:13:15;;;;;;;3.08;1.92;;;;;;;;;;4952339;28;20043;-60
2022/04/05 04:15:41;;;;;;;2.03;1.83;;;;;;;;;;4945652;28;20492;-62
2022/04/05 04:18:07;;;;;;;2.00;1.80;;;;;;;;;;4946083;28;20035;-62
2022/04/05 04:20:33;;;;;;;2.10;1.90;;;;;;;;;;4948239;28;20034;-62
2022/04/05 04:22:58;;;;;;;2.50;2.22;;;;;;;;;;4945571;28;20031;-61
2022/04/05 04:25:24;;;;;;;2.00;1.80;;;;;;;;;;4949261;28;20039;-60
2022/04/05 04:27:49;;;;;;;2.65;2.00;;;;;;;;;;4946417;28;20051;-60
2022/04/05 04:30:14;;;;;;;2.75;2.40;;;;;;;;;;4950989;28;20196;-60
2022/04/05 04:32:40;;;;;;;2.83;2.17;;;;;;;;;;4945958;28;20121;-60
2022/04/05 04:35:07;;;;;;;3.00;2.13;;;;;;;;;;4946409;28;20034;-61
2022/04/05 04:37:33;;;;;;;2.10;1.90;;;;;;;;;;4948678;28;20047;-60
2022/04/05 04:39:59;;;;;;;4.10;2.15;;;;;;;;;;4947454;28;20532;-61
2022/04/05 04:42:24;;;;;;;2.20;2.00;;;;;;;;;;4949159;28;20039;-60
2022/04/05 04:44:50;;;;;;;2.45;2.22;;;;;;;;;;4945930;28;20023;-60
2022/04/05 04:47:17;;;;;;;4.25;2.20;;;;;;;;;;4946426;28;20041;-61
2022/04/05 04:49:43;;;;;;;2.75;2.55;;;;;;;;;;4950667;28;20462;-60
2022/04/05 04:52:08;;;;;;;2.92;2.13;;;;;;;;;;4948943;28;20032;-60
2022/04/05 04:54:34;;;;;;;2.83;2.25;;;;;;;;;;4945804;28;20079;-60
2022/04/05 04:56:59;;;;;;;2.83;2.53;;;;;;;;;;4946799;28;20035;-60
2022/04/05 04:59:24;;;;;;;2.70;2.40;;;;;;;;;;4947060;28;20055;-61
2022/04/05 05:01:50;;;;;;;3.45;2.10;;;;;;;;;;4943666;28;20035;-61
2022/04/05 05:04:15;;;;;;;2.38;2.17;;;;;;;;;;4945396;28;20126;-61
2022/04/05 05:06:40;;;;;;;3.53;2.53;;;;;;;;;;4947353;28;20037;-61
2022/04/05 05:09:06;;;;;;;4.22;2.67;;;;;;;;;;4944702;28;20027;-61
2022/04/05 05:11:31;;;;;;;2.67;2.40;;;;;;;;;;4946905;28;20035;-61
2022/04/05 05:13:57;;;;;;;4.07;2.70;;;;;;;;;;4946304;28;20039;-61
2022/04/05 05:16:22;;;;;;;3.58;2.80;;;;;;;;;;4949293;28;20101;-62
2022/04/05 05:18:47;;;;;;;3.17;2.67;;;;;;;;;;4947983;28;20516;-60
2022/04/05 05:21:13;;;;;;;6.78;2.90;;;;;;;;;;4946892;28;20047;-60
2022/04/05 05:23:38;;;;;;;3.15;2.85;;;;;;;;;;4946454;28;20067;-61
2022/04/05 05:26:04;;;;;;;3.95;3.08;;;;;;;;;;4948478;28;20035;-61
2022/04/05 05:28:29;;;;;;;3.50;3.03;;;;;;;;;;4948794;28;20037;-61
2022/04/05 05:30:54;;;;;;;2.80;2.60;;;;;;;;;;4942875;28;20043;-62
2022/04/05 05:33:20;;;;;;;4.38;3.05;;;;;;;;;;4944576;28;20054;-62
2022/04/05 05:35:45;;;;;;;3.72;3.25;;;;;;;;;;4961047;28;20053;-61
2022/04/05 05:38:10;;;;;;;4.10;2.88;;;;;;;;;;4947931;28;20082;-61
2022/04/05 05:40:36;;;;;;;4.38;3.30;;;;;;;;;;4945959;28;20392;-61
2022/04/05 05:43:04;;;;;;;3.67;2.97;;;;;;;;;;4945347;28;20143;-61
2022/04/05 05:45:35;;;;;;;4.38;3.30;;;;;;;;;;4947034;28;20127;-60
2022/04/05 05:48:01;;;;;;;3.47;3.10;;;;;;;;;;4947237;28;20046;-62
2022/04/05 05:50:26;;;;;;;3.40;3.03;;;;;;;;;;4951122;28;20500;-68
2022/04/05 05:52:53;;;;;;;4.10;3.00;;;;;;;;;;4946904;28;20121;-62
2022/04/05 05:55:20;;;;;;;3.47;2.78;;;;;;;;;;4949433;28;20052;-61
2022/04/05 05:57:46;;;;;;;3.15;2.60;;;;;;;;;;4949553;28;20065;-60
2022/04/05 06:00:20;;;;;;;5.57;3.00;;;;;;;;;;4948562;28;20429;-62
2022/04/05 06:02:47;;;;;;;3.80;3.40;;;;;;;;;;4944474;28;20034;-60
2022/04/05 06:05:13;;;;;;;3.40;3.00;;;;;;;;;;4950613;28;20090;-59
2022/04/05 06:07:38;;;;;;;3.50;3.03;;;;;;;;;;4944717;28;21238;-59
2022/04/05 06:10:05;;;;;;;4.95;2.80;;;;;;;;;;4940526;28;20031;-59
2022/04/05 06:12:31;;;;;;;3.72;3.05;;;;;;;;;;4946170;28;20042;-59
2022/04/05 06:14:56;;;;;;;3.38;3.08;;;;;;;;;;4951085;28;20122;-60
2022/04/05 06:17:22;;;;;;;3.60;2.78;;;;;;;;;;4948451;28;20050;-59
2022/04/05 06:19:47;;;;;;;3.70;3.10;;;;;;;;;;4947670;28;20023;-61
2022/04/05 06:22:13;;;;;;;4.25;3.22;;;;;;;;;;4954078;28;20102;-60
2022/04/05 06:24:39;;;;;;;3.38;3.08;;;;;;;;;;4950667;28;20036;-60
2022/04/05 06:27:05;;;;;;;3.83;3.17;;;;;;;;;;4949408;28;20066;-60
2022/04/05 06:29:31;;;;;;;5.38;3.33;;;;;;;;;;4947986;28;20050;-59
2022/04/05 06:31:56;;;;;;;3.30;3.00;;;;;;;;;;4952194;28;20035;-60
2022/04/05 06:34:22;;;;;;;4.60;3.50;;;;;;;;;;4951384;28;20089;-60
2022/04/05 06:36:48;;;;;;;3.58;2.95;;;;;;;;;;4950338;28;20506;-60
2022/04/05 06:39:13;;;;;;;4.30;3.05;;;;;;;;;;4950834;28;20534;-60
2022/04/05 06:41:39;;;;;;;3.50;3.20;;;;;;;;;;4952648;28;20031;-60
2022/04/05 06:44:05;;;;;;;3.10;2.78;;;;;;;;;;4949812;28;20031;-60
2022/04/05 06:46:31;;;;;;;3.97;2.90;;;;;;;;;;4946027;28;20134;-60
2022/04/05 06:48:57;;;;;;;3.47;3.08;;;;;;;;;;4953244;28;20091;-60
2022/04/05 06:51:23;;;;;;;4.35;3.50;;;;;;;;;;4950447;28;20031;-60
2022/04/05 06:53:48;;;;;;;4.30;2.80;;;;;;;;;;4946568;28;20498;-60
2022/04/05 06:56:14;;;;;;;4.47;3.03;;;;;;;;;;4949418;28;20114;-59
2022/04/05 06:58:39;;;;;;;3.10;2.80;;;;;;;;;;4955766;28;20385;-60
2022/04/05 07:01:05;;;;;;;3.28;2.97;;;;;;;;;;4945126;28;20664;-64
2022/04/05 07:03:31;;;;;;;4.15;2.90;;;;;;;;;;4949481;28;20082;-65
2022/04/05 07:05:57;;;;;;;5.60;3.00;;;;;;;;;;4951641;28;20470;-63
2022/04/05 07:08:23;;;;;;;3.30;2.80;;;;;;;;;;4945233;28;20058;-63
2022/04/05 07:10:50;;;;;;;3.63;2.70;;;;;;;;;;4946965;28;20481;-62
2022/04/05 07:13:15;;;;;;;4.45;2.90;;;;;;;;;;4949788;28;20129;-61
2022/04/05 07:15:41;;;;;;;3.58;2.88;;;;;;;;;;4952925;28;20118;-60
2022/04/05 07:18:06;;;;;;;3.35;2.63;;;;;;;;;;4948567;28;20134;-61
2022/04/05 07:20:34;;;;;;;2.55;2.35;;;;;;;;;;4949931;28;20055;-59
2022/04/05 07:22:59;;;;;;;4.75;2.50;;;;;;;;;;4947261;28;20035;-59
2022/04/05 07:25:26;;;;;;;3.33;2.58;;;;;;;;;;4951826;28;20189;-59
2022/04/05 07:27:51;;;;;;;3.28;2.67;;;;;;;;;;4948254;28;20067;-62
2022/04/05 07:30:18;;;;;;;3.78;2.13;;;;;;;;;;4949760;28;20122;-59
2022/04/05 07:32:45;;;;;;;2.50;2.13;;;;;;;;;;4951401;28;20130;-60
2022/04/05 07:35:12;;;;;;;2.25;1.98;;;;;;;;;;4947546;28;20035;-60
2022/04/05 07:37:37;;;;;;;3.80;2.30;;;;;;;;;;4949322;28;20098;-60
2022/04/05 07:40:05;;;;;;;2.88;2.45;;;;;;;;;;4949137;28;20034;-58
2022/04/05 07:42:31;;;;;;;2.13;1.92;;;;;;;;;;4949332;28;20133;-60
2022/04/05 07:44:57;;;;;;;2.25;1.80;;;;;;;;;;4948332;28;20035;-60
2022/04/05 07:47:23;;;;;;;2.88;2.10;;;;;;;;;;4951435;28;20049;-58
2022/04/05 07:49:48;;;;;;;2.30;2.10;;;;;;;;;;4951203;28;20055;-61
2022/04/05 07:52:14;;;;;;;2.10;1.90;;;;;;;;;;4949467;28;20433;-62
2022/04/05 07:54:43;;;;;;;3.53;1.88;;;;;;;;;;4948037;28;20114;-62
2022/04/05 07:57:10;;;;;;;2.60;1.92;;;;;;;;;;4952138;28;20031;-61
2022/04/05 07:59:36;;;;;;;2.00;1.80;;;;;;;;;;4952291;28;20408;-62
2022/04/05 08:02:01;;;;;;;2.03;1.83;;;;;;;;;;4951706;28;20031;-62
2022/04/05 08:04:27;;;;;;;1.95;1.80;;;;;;;;;;4953022;28;20054;-58
2022/04/05 08:06:52;;;;;;;1.35;1.25;;;;;;;;;;4950714;28;20031;-61
2022/04/05 08:09:17;;;;;;;3.38;1.50;;;;;;;;;;4949938;28;20035;-61
2022/04/05 08:11:43;;;;;;;2.25;1.58;;;;;;;;;;4940727;28;20039;-61
2022/04/05 08:14:08;;;;;;;1.70;1.60;;;;;;;;;;4943603;28;20040;-62
2022/04/05 08:16:34;;;;;;;1.73;1.60;;;;;;;;;;4944079;28;20098;-61
2022/04/05 08:18:59;;;;;;;1.55;1.45;;;;;;;;;;4944116;28;20149;-61
2022/04/05 08:21:25;;;;;;;1.98;1.60;;;;;;;;;;4946035;28;20421;-59
2022/04/05 08:23:52;;;;;;;1.30;1.17;;;;;;;;;;4949762;28;20027;-61
2022/04/05 08:26:18;;;;;;;1.70;1.50;;;;;;;;;;4948600;28;20038;-60
2022/04/05 08:28:44;;;;;;;1.45;1.10;;;;;;;;;;4947402;28;20413;-61
2022/04/05 08:31:09;;;;;;;1.30;1.20;;;;;;;;;;4940893;28;20037;-61
2022/04/05 08:33:34;;;;;;;1.48;1.20;;;;;;;;;;4943738;28;20122;-60
2022/04/05 08:36:00;;;;;;;1.25;1.15;;;;;;;;;;4945873;28;20035;-60
2022/04/05 08:38:28;;;;;;;1.35;1.20;;;;;;;;;;4951348;28;20043;-61
2022/04/05 08:40:54;;;;;;;1.02;0.90;;;;;;;;;;4952118;28;20050;-61
2022/04/05 08:43:20;;;;;;;1.20;1.10;;;;;;;;;;4951441;28;20039;-60
2022/04/05 08:45:56;;;;;;;1.30;1.20;;;;;;;;;;4950609;28;20074;-60
2022/04/05 08:48:26;;;;;;;1.10;1.00;;;;;;;;;;4951589;28;20036;-61
2022/04/05 08:50:52;;;;;;;1.20;1.10;;;;;;;;;;4950369;28;20458;-62
2022/04/05 08:53:18;;;;;;;1.20;1.00;;;;;;;;;;4950892;28;20042;-62
2022/04/05 08:55:44;;;;;;;1.15;1.02;;;;;;;;;;4949939;28;20050;-61
2022/04/05 08:58:10;;;;;;;1.20;1.10;;;;;;;;;;4951243;28;20039;-61
2022/04/05 09:00:35;;;;;;;1.00;1.00;;;;;;;;;;4950163;28;20031;-58
2022/04/05 09:03:03;;;;;;;1.20;1.10;;;;;;;;;;4949927;28;20023;-59
2022/04/05 09:05:31;;;;;;;1.70;1.10;;;;;;;;;;4951355;28;20039;-61
2022/04/05 09:08:17;;;;;;;1.15;1.05;;;;;;;;;;4949280;28;20035;-59
2022/04/05 09:10:44;;;;;;;1.65;1.35;;;;;;;;;;4947965;28;20046;-61
2022/04/05 09:13:11;;;;;;;1.65;1.30;;;;;;;;;;4948488;28;20038;-59
2022/04/05 09:15:37;;;;;;;1.35;1.00;;;;;;;;;;4951405;28;20477;-61
2022/04/05 09:18:04;;;;;;;0.90;0.90;;;;;;;;;;4947091;28;20042;-61
2022/04/05 09:20:30;;;;;;;2.72;1.20;;;;;;;;;;4951281;28;20043;-60
2022/04/05 09:22:56;;;;;;;5.45;1.48;;;;;;;;;;4949717;28;20440;-56
2022/04/05 09:25:23;;;;;;;1.10;1.00;;;;;;;;;;4951640;28;20039;-58
2022/04/05 09:27:54;;;;;;;1.20;1.10;;;;;;;;;;4952331;28;20169;-61
2022/04/05 09:30:23;;;;;;;1.25;1.15;;;;;;;;;;4951005;28;20457;-61
2022/04/05 09:32:50;;;;;;;1.45;1.08;;;;;;;;;;4951108;28;20035;-58
2022/04/05 09:35:18;;;;;;;1.27;1.17;;;;;;;;;;4948780;28;20093;-61
2022/04/05 09:37:44;;;;;;;1.25;1.15;;;;;;;;;;4948488;28;20378;-61
2022/04/05 09:40:19;;;;;;;1.20;1.10;;;;;;;;;;4950249;28;20031;-61
2022/04/05 09:43:02;;;;;;;1.20;1.10;;;;;;;;;;4949646;28;20042;-61
2022/04/05 09:45:48;;;;;;;1.20;1.10;;;;;;;;;;4946163;28;20347;-61
2022/04/05 09:48:16;;;;;;;1.10;1.00;;;;;;;;;;4946825;28;20039;-61
2022/04/05 09:51:00;;;;;;;1.35;1.15;;;;;;;;;;4950148;28;20038;-60
2022/04/05 09:53:46;;;;;;;1.00;0.98;;;;;;;;;;4949382;28;20038;-58
2022/04/05 09:56:18;;;;;;;1.20;1.10;;;;;;;;;;4947946;28;20101;-61
2022/04/05 09:58:45;;;;;;;1.13;1.02;;;;;;;;;;4949788;28;20059;-61
2022/04/05 10:01:11;;;;;;;1.20;1.10;;;;;;;;;;4944769;28;20035;-61
2022/04/05 10:03:41;;;;;;;2.20;1.25;;;;;;;;;;4948257;28;20126;-61
2022/04/05 16:51:53;;;;;;;5.20;4.20;;;;;;;;;;4933790;29;20514;-57
2022/04/05 16:54:19;;;;;;;5.15;4.40;;;;;;;;;;4931590;29;20111;-58
2022/04/05 16:56:44;;;;;;;4.90;3.40;;;;;;;;;;4934341;29;20111;-60
2022/04/05 16:59:11;;;;;;;5.03;3.97;;;;;;;;;;4934375;29;20026;-59
2022/04/05 17:01:36;;;;;;;5.10;3.80;;;;;;;;;;4937163;28;20410;-61
2022/04/05 17:04:02;;;;;;;3.65;3.33;;;;;;;;;;4934850;29;20043;-59
2022/04/05 17:06:28;;;;;;;3.65;3.10;;;;;;;;;;4931538;29;20487;-60
2022/04/05 17:08:54;;;;;;;3.35;2.97;;;;;;;;;;4931918;29;20131;-61
2022/04/05 17:11:19;;;;;;;4.70;2.97;;;;;;;;;;4930265;29;20441;-61
2022/04/05 17:13:46;;;;;;;4.43;3.03;;;;;;;;;;4931047;29;20031;-61
2022/04/05 17:16:12;;;;;;;4.07;3.30;;;;;;;;;;4932900;29;20039;-60
2022/04/05 17:18:38;;;;;;;3.95;3.00;;;;;;;;;;4929747;29;20031;-61
2022/04/05 17:21:04;;;;;;;4.00;2.95;;;;;;;;;;4930103;29;20124;-61
2022/04/05 17:23:30;;;;;;;3.90;3.20;;;;;;;;;;4931569;29;20067;-60
2022/04/05 17:25:56;;;;;;;3.03;2.58;;;;;;;;;;4930489;28;20059;-59
2022/04/05 17:28:22;;;;;;;4.53;2.80;;;;;;;;;;4928729;29;20050;-62
2022/04/05 17:30:47;;;;;;;3.60;3.03;;;;;;;;;;4928191;29;20453;-56
2022/04/05 17:33:14;;;;;;;4.40;2.88;;;;;;;;;;4937049;29;20039;-60
2022/04/05 17:35:40;;;;;;;3.83;2.80;;;;;;;;;;4933368;29;20044;-58
2022/04/05 17:38:07;;;;;;;3.17;2.80;;;;;;;;;;4939308;29;20050;-58
2022/04/05 17:40:32;;;;;;;3.40;2.60;;;;;;;;;;4926592;29;20053;-56
2022/04/05 17:42:58;;;;;;;3.35;2.90;;;;;;;;;;4930963;29;20040;-55
2022/04/05 17:45:26;;;;;;;3.75;2.60;;;;;;;;;;4930666;29;20473;-62
2022/04/05 17:47:52;;;;;;;2.63;2.42;;;;;;;;;;4936966;29;20150;-55
2022/04/05 17:50:18;;;;;;;2.78;2.53;;;;;;;;;;4924194;29;20051;-58
2022/04/05 17:52:43;;;;;;;3.60;2.22;;;;;;;;;;4938623;29;20434;-56
2022/04/05 17:55:10;;;;;;;3.60;2.85;;;;;;;;;;4928759;29;20478;-56
2022/04/05 17:57:36;;;;;;;3.47;2.80;;;;;;;;;;4940599;29;20090;-57
2022/04/05 18:00:05;;;;;;;3.05;2.55;;;;;;;;;;4931580;29;20032;-57
2022/04/05 18:02:31;;;;;;;3.35;2.72;;;;;;;;;;4934061;29;20036;-52
2022/04/05 18:04:56;;;;;;;3.08;2.50;;;;;;;;;;4934378;29;20041;-54
2022/04/05 18:07:21;;;;;;;3.30;2.70;;;;;;;;;;4928222;29;20459;-56
2022/04/05 18:09:48;;;;;;;4.20;2.67;;;;;;;;;;4937319;29;20027;-53
2022/04/05 18:12:14;;;;;;;3.83;2.70;;;;;;;;;;4938198;29;20428;-56
2022/04/05 18:14:40;;;;;;;2.92;2.30;;;;;;;;;;4933314;29;20189;-56
2022/04/05 18:17:05;;;;;;;4.40;3.17;;;;;;;;;;4940119;29;20107;-54
2022/04/05 18:19:31;;;;;;;3.85;2.88;;;;;;;;;;4938951;29;20037;-56
2022/04/05 18:21:58;;;;;;;4.80;2.80;;;;;;;;;;4935144;29;20581;-53
2022/04/05 18:24:24;;;;;;;4.70;3.50;;;;;;;;;;4937635;29;20040;-54
2022/04/05 18:26:49;;;;;;;3.38;2.70;;;;;;;;;;4935818;28;20054;-57
2022/04/05 18:29:14;;;;;;;5.20;2.85;;;;;;;;;;4941265;29;20121;-55
2022/04/05 18:31:41;;;;;;;3.20;2.45;;;;;;;;;;4932979;28;20038;-54
2022/04/05 18:34:07;;;;;;;3.00;2.33;;;;;;;;;;4935573;29;20490;-57
2022/04/05 18:36:32;;;;;;;4.30;2.58;;;;;;;;;;4936131;29;20091;-56
2022/04/05 18:38:58;;;;;;;2.42;2.03;;;;;;;;;;4933757;28;20036;-56
2022/04/05 18:41:23;;;;;;;2.97;2.30;;;;;;;;;;4933987;29;20137;-57
2022/04/05 18:43:50;;;;;;;2.78;2.35;;;;;;;;;;4934990;29;20417;-54
2022/04/05 18:46:15;;;;;;;3.08;2.40;;;;;;;;;;4929809;29;20044;-58
2022/04/05 18:48:41;;;;;;;2.60;2.40;;;;;;;;;;4934496;29;20028;-61
2022/04/05 18:51:07;;;;;;;2.35;2.15;;;;;;;;;;4932932;29;20038;-64
2022/04/05 18:53:34;;;;;;;3.97;2.67;;;;;;;;;;4933783;29;20070;-56
2022/04/05 18:56:01;;;;;;;3.20;2.40;;;;;;;;;;4930470;29;20035;-56
2022/04/05 18:58:26;;;;;;;3.47;2.50;;;;;;;;;;4933357;29;20043;-57
2022/04/05 19:00:51;;;;;;;3.35;2.40;;;;;;;;;;4932480;29;20082;-57
2022/04/05 19:03:17;;;;;;;3.47;2.33;;;;;;;;;;4932574;29;20055;-56
2022/04/05 19:05:43;;;;;;;3.38;2.90;;;;;;;;;;4935062;29;20043;-63
2022/04/05 19:08:09;;;;;;;2.92;2.35;;;;;;;;;;4933317;29;20035;-63
2022/04/05 19:10:36;;;;;;;3.30;2.80;;;;;;;;;;4933796;29;20393;-62
2022/04/05 19:13:05;;;;;;;3.10;2.70;;;;;;;;;;4934042;29;20079;-62
2022/04/05 19:15:30;;;;;;;3.20;2.90;;;;;;;;;;4934398;29;20047;-63
2022/04/05 19:17:57;;;;;;;4.95;3.10;;;;;;;;;;4922443;29;20180;-63
2022/04/05 19:20:23;;;;;;;5.82;3.20;;;;;;;;;;4923018;29;20043;-63
2022/04/05 19:22:49;;;;;;;6.20;3.40;;;;;;;;;;4922270;29;20039;-63
2022/04/05 19:25:15;;;;;;;3.95;3.30;;;;;;;;;;4922061;29;20027;-64
2022/04/05 19:27:41;;;;;;;5.88;3.83;;;;;;;;;;4922522;29;20114;-63
2022/04/05 19:30:09;;;;;;;6.75;3.70;;;;;;;;;;4919287;29;20488;-62
2022/04/05 19:32:34;;;;;;;5.28;3.60;;;;;;;;;;4933186;23;20060;-64
2022/04/05 19:35:00;;;;;;;5.65;3.88;;;;;;;;;;4904735;29;20995;-68
2022/04/05 19:37:26;;;;;;;5.03;3.85;;;;;;;;;;4903963;29;20067;-67
2022/04/05 19:39:51;;;;;;;4.47;3.88;;;;;;;;;;4906050;29;20273;-67
2022/04/05 19:42:18;;;;;;;5.47;4.57;;;;;;;;;;4901200;29;20025;-67
2022/04/05 19:44:44;;;;;;;5.05;4.20;;;;;;;;;;4901068;29;20067;-67
2022/04/05 19:47:09;;;;;;;5.22;4.13;;;;;;;;;;4902724;29;20029;-67
2022/04/05 19:49:36;;;;;;;5.85;4.38;;;;;;;;;;4902469;29;20036;-69
2022/04/05 19:52:02;;;;;;;4.68;3.95;;;;;;;;;;4901276;29;20111;-67
2022/04/05 19:54:27;;;;;;;5.93;4.30;;;;;;;;;;4907406;29;20038;-66
2022/04/05 19:56:53;;;;;;;6.35;4.20;;;;;;;;;;4905997;29;20210;-69
2022/04/05 19:59:18;;;;;;;4.75;4.18;;;;;;;;;;4904795;29;20113;-66
2022/04/05 20:01:44;;;;;;;4.82;4.03;;;;;;;;;;4905527;29;20020;-50
2022/04/05 20:04:09;;;;;;;5.20;4.25;;;;;;;;;;4905393;29;20028;-54
2022/04/05 20:06:35;;;;;;;5.47;4.10;;;;;;;;;;4911558;29;20040;-53
2022/04/05 20:09:01;;;;;;;5.25;4.03;;;;;;;;;;4909419;29;20215;-54
2022/04/05 20:11:27;;;;;;;7.43;4.50;;;;;;;;;;4905557;29;20028;-54
2022/04/05 20:13:52;;;;;;;5.40;4.13;;;;;;;;;;4910556;29;20218;-57
2022/04/05 20:19:02;;;;;;;6.13;4.40;;;;;;;;;;4908041;29;20424;-54
2022/04/05 20:21:28;;;;;;;5.97;4.80;;;;;;;;;;4909965;29;20044;-66
2022/04/05 20:23:54;;;;;;;5.03;4.13;;;;;;;;;;4909654;29;20035;-67
2022/04/05 20:26:20;;;;;;;5.55;4.70;;;;;;;;;;4904436;29;20278;-54
2022/04/05 20:28:45;;;;;;;5.00;4.47;;;;;;;;;;4911802;29;20064;-56
2022/04/05 20:31:11;;;;;;;4.68;4.10;;;;;;;;;;4910274;29;20085;-54
2022/04/05 20:33:41;;;;;;;5.75;4.03;;;;;;;;;;4904096;29;20099;-53
2022/04/05 20:36:07;;;;;;;5.35;3.95;;;;;;;;;;4906095;29;20060;-56
2022/04/05 20:38:33;;;;;;;4.78;4.10;;;;;;;;;;4909719;29;20048;-54
2022/04/05 20:41:00;;;;;;;4.78;3.75;;;;;;;;;;4911895;29;20086;-54
2022/04/05 20:43:26;;;;;;;5.20;4.25;;;;;;;;;;4909183;29;20033;-54
2022/04/05 20:45:52;;;;;;;5.00;4.18;;;;;;;;;;4902650;29;20037;-68
2022/04/05 20:48:18;;;;;;;5.28;4.07;;;;;;;;;;4913539;29;20032;-69
2022/04/05 20:50:44;;;;;;;4.50;3.88;;;;;;;;;;4908615;29;20420;-69
2022/04/05 20:53:10;;;;;;;5.47;3.90;;;;;;;;;;4904987;29;20073;-69
2022/04/05 20:55:36;;;;;;;4.25;3.38;;;;;;;;;;4909242;29;20060;-69
2022/04/05 20:58:01;;;;;;;3.97;3.58;;;;;;;;;;4911613;29;20071;-67
2022/04/05 21:00:27;;;;;;;4.18;3.28;;;;;;;;;;4906881;29;20028;-56
2022/04/05 21:02:53;;;;;;;4.30;3.33;;;;;;;;;;4911273;29;20045;-53
2022/04/05 21:05:19;;;;;;;4.13;3.40;;;;;;;;;;4885517;29;20037;-66
2022/04/05 21:07:44;;;;;;;3.78;3.20;;;;;;;;;;4895974;29;20040;-67
2022/04/05 21:10:10;;;;;;;4.35;3.55;;;;;;;;;;4904014;29;20247;-66
2022/04/05 21:12:36;;;;;;;5.53;3.40;;;;;;;;;;4915093;29;20324;-67
2022/04/05 21:15:03;;;;;;;3.70;3.15;;;;;;;;;;4901809;29;20051;-65
2022/04/05 21:17:28;;;;;;;3.30;3.00;;;;;;;;;;4903517;29;20064;-64
2022/04/05 21:19:55;;;;;;;3.75;3.33;;;;;;;;;;4903139;29;20229;-64
2022/04/05 21:22:22;;;;;;;3.60;3.20;;;;;;;;;;4902512;29;20092;-64
2022/04/05 21:24:48;;;;;;;4.47;3.42;;;;;;;;;;4886447;29;20092;-63
2022/04/05 21:27:14;;;;;;;3.25;2.95;;;;;;;;;;4902902;29;20048;-64